createdAt,value
2018-07-23T00:00:07.168Z,11.17
2018-07-23T00:05:11.247Z,11.43
2018-07-23T00:10:14.786Z,7.73
2018-07-23T00:15:18.376Z,9.80
2018-07-23T00:20:22.594Z,10.30
2018-07-23T00:25:26.256Z,9.20
2018-07-23T00:30:31.187Z,10.00
2018-07-23T00:35:34.748Z,8.53
2018-07-23T00:40:38.365Z,9.17
2018-07-23T00:45:41.954Z,10.80
2018-07-23T00:50:45.780Z,11.27
2018-07-23T00:55:50.080Z,11.47
2018-07-23T01:00:54.366Z,11.27
2018-07-23T01:05:57.982Z,11.60
2018-07-23T01:11:02.377Z,12.80
2018-07-23T01:16:06.333Z,10.97
2018-07-23T01:21:10.028Z,10.83
2018-07-23T01:26:13.594Z,12.27
2018-07-23T01:31:17.286Z,10.87
2018-07-23T01:36:20.766Z,10.83
2018-07-23T01:41:24.329Z,11.30
2018-07-23T01:46:27.950Z,10.63
2018-07-23T01:51:31.480Z,11.70
2018-07-23T01:56:35.189Z,10.63
2018-07-23T02:01:40.044Z,12.27
2018-07-23T02:06:43.671Z,12.03
2018-07-23T02:11:47.267Z,12.17
2018-07-23T02:16:51.600Z,13.13
2018-07-23T02:21:56.023Z,13.50
2018-07-23T02:26:59.576Z,14.13
2018-07-23T02:32:03.121Z,16.23
2018-07-23T02:37:06.789Z,13.80
2018-07-23T02:42:10.380Z,13.53
2018-07-23T02:47:13.999Z,13.13
2018-07-23T02:52:17.574Z,13.00
2018-07-23T02:57:21.567Z,13.07
2018-07-23T03:02:25.127Z,14.90
2018-07-23T03:07:28.716Z,13.67
2018-07-23T03:12:32.610Z,15.20
2018-07-23T03:17:36.122Z,14.83
2018-07-23T03:22:40.803Z,17.47
2018-07-23T03:27:44.432Z,16.33
2018-07-23T03:32:48.578Z,18.43
2018-07-23T03:37:52.108Z,18.77
2018-07-23T03:42:55.700Z,16.57
2018-07-23T03:48:00.091Z,16.23
2018-07-23T03:53:03.783Z,16.37
2018-07-23T03:58:07.333Z,18.10
2018-07-23T04:03:10.876Z,15.17
2018-07-23T04:08:14.438Z,19.63
2018-07-23T04:13:17.996Z,18.03
2018-07-23T04:18:21.492Z,18.43
2018-07-23T04:23:25.197Z,16.30
2018-07-23T04:28:28.904Z,19.33
2018-07-23T04:33:32.544Z,21.73
2018-07-23T04:38:36.026Z,20.37
2018-07-23T04:43:39.893Z,20.37
2018-07-23T04:48:43.531Z,21.67
2018-07-23T04:53:47.090Z,21.77
2018-07-23T04:58:50.616Z,19.50
2018-07-23T05:03:54.549Z,18.53
2018-07-23T05:08:58.077Z,19.77
2018-07-23T05:14:02.048Z,19.93
2018-07-23T05:19:05.513Z,17.00
2018-07-23T05:24:09.962Z,19.53
2018-07-23T05:29:13.437Z,21.37
2018-07-23T05:34:17.033Z,21.83
2018-07-23T05:39:21.111Z,24.60
2018-07-23T05:44:24.649Z,24.73
2018-07-23T05:49:28.944Z,25.60
2018-07-23T05:54:32.544Z,27.80
2018-07-23T05:59:36.515Z,25.47
2018-07-23T06:04:40.930Z,23.37
2018-07-23T06:09:44.403Z,24.80
2018-07-23T06:14:47.978Z,24.97
2018-07-23T06:19:51.469Z,22.13
2018-07-23T06:24:55.205Z,25.77
2018-07-23T06:29:58.701Z,24.20
2018-07-23T06:35:02.335Z,21.33
2018-07-23T06:40:07.809Z,23.17
2018-07-23T06:45:11.361Z,22.07
2018-07-23T06:50:15.653Z,21.80
2018-07-23T06:55:19.221Z,24.03
2018-07-23T07:00:22.715Z,21.30
2018-07-23T07:05:27.589Z,20.10
2018-07-23T07:10:31.547Z,20.80
2018-07-23T07:15:35.476Z,21.67
2018-07-23T07:20:39.030Z,22.00
2018-07-23T07:25:42.604Z,19.37
2018-07-23T07:30:46.595Z,17.03
2018-07-23T07:35:50.239Z,17.37
2018-07-23T07:40:53.760Z,18.07
2018-07-23T07:45:57.781Z,17.30
2018-07-23T07:51:01.259Z,16.43
2018-07-23T07:56:05.845Z,16.07
2018-07-23T08:01:09.512Z,14.80
2018-07-23T08:06:13.134Z,17.03
2018-07-23T08:11:16.761Z,13.33
2018-07-23T08:16:20.312Z,11.80
2018-07-23T08:21:24.124Z,10.97
2018-07-23T08:26:28.112Z,14.70
2018-07-23T08:31:31.874Z,10.73
2018-07-23T08:36:35.869Z,10.17
2018-07-23T08:41:39.478Z,7.27
2018-07-23T08:46:43.125Z,7.90
2018-07-23T08:51:46.743Z,9.13
2018-07-23T08:56:51.792Z,7.53
2018-07-23T09:01:55.278Z,7.67
2018-07-23T09:06:59.809Z,6.73
2018-07-23T09:12:03.305Z,7.93
2018-07-23T09:17:06.846Z,5.00
2018-07-23T09:22:10.460Z,6.73
2018-07-23T09:27:13.957Z,7.60
2018-07-23T09:32:17.442Z,8.53
2018-07-23T09:37:21.671Z,4.93
2018-07-23T09:42:25.146Z,4.90
2018-07-23T09:47:28.754Z,5.20
2018-07-23T09:52:32.232Z,4.83
2018-07-23T09:57:35.871Z,4.30
2018-07-23T10:02:39.396Z,4.93
2018-07-23T10:07:42.956Z,5.03
2018-07-23T10:12:46.403Z,6.20
2018-07-23T10:17:50.064Z,4.43
2018-07-23T10:22:53.584Z,4.23
2018-07-23T10:27:57.109Z,4.73
2018-07-23T10:33:00.774Z,4.00
2018-07-23T10:38:05.337Z,4.80
2018-07-23T10:43:09.685Z,5.27
2018-07-23T10:48:14.106Z,6.03
2018-07-23T10:53:18.055Z,4.50
2018-07-23T10:58:21.870Z,4.50
2018-07-23T11:03:25.622Z,4.77
2018-07-23T11:08:29.333Z,4.40
2018-07-23T11:13:32.837Z,3.80
2018-07-23T11:18:37.435Z,4.77
2018-07-23T11:23:41.016Z,4.50
2018-07-23T11:28:44.675Z,5.07
2018-07-23T11:33:48.291Z,4.47
2018-07-23T11:38:51.899Z,4.20
2018-07-23T11:43:55.390Z,3.87
2018-07-23T11:48:58.950Z,3.53
2018-07-23T11:54:02.661Z,3.33
2018-07-23T11:59:06.309Z,3.83
2018-07-23T12:04:10.733Z,4.33
2018-07-23T12:09:13.970Z,4.03
2018-07-23T12:14:17.541Z,3.70
2018-07-23T12:19:21.101Z,3.67
2018-07-23T12:24:24.784Z,3.20
2018-07-23T12:29:28.537Z,3.53
2018-07-23T12:34:32.182Z,3.27
2018-07-23T12:39:35.742Z,3.73
2018-07-23T12:44:39.255Z,4.00
2018-07-23T12:49:42.909Z,3.63
2018-07-23T12:54:46.349Z,3.50
2018-07-23T12:59:50.017Z,3.43
2018-07-23T13:04:53.509Z,3.17
2018-07-23T13:09:57.068Z,3.30
2018-07-23T13:15:00.730Z,3.33
2018-07-23T13:20:05.025Z,2.80
2018-07-23T13:25:08.576Z,2.77
2018-07-23T13:30:16.670Z,2.67
2018-07-23T13:35:21.153Z,3.13
2018-07-23T13:40:24.706Z,2.63
2018-07-23T13:45:28.212Z,2.43
2018-07-23T13:50:31.809Z,3.27
2018-07-23T13:55:35.429Z,3.37
2018-07-23T14:00:39.303Z,3.87
2018-07-23T14:05:42.757Z,2.90
2018-07-23T14:10:46.646Z,2.60
2018-07-23T14:15:50.210Z,3.60
2018-07-23T14:20:53.887Z,3.40
2018-07-23T14:25:57.444Z,3.33
2018-07-23T14:31:00.945Z,3.50
2018-07-23T14:36:04.530Z,2.47
2018-07-23T14:41:08.036Z,2.90
2018-07-23T14:46:12.226Z,2.93
2018-07-23T14:51:15.797Z,2.83
2018-07-23T14:56:20.009Z,3.13
2018-07-23T15:01:23.501Z,2.67
2018-07-23T15:06:27.040Z,2.80
2018-07-23T15:11:30.522Z,2.70
2018-07-23T15:16:34.944Z,2.83
2018-07-23T15:21:38.474Z,2.80
2018-07-23T15:26:43.153Z,2.80
2018-07-23T15:31:46.618Z,3.00
2018-07-23T15:36:51.162Z,2.77
2018-07-23T15:41:55.181Z,3.03
2018-07-23T15:46:59.368Z,2.43
2018-07-23T15:52:02.885Z,4.07
2018-07-23T15:57:07.565Z,2.90
2018-07-23T16:02:11.505Z,3.43
2018-07-23T16:07:15.893Z,3.60
2018-07-23T16:12:19.389Z,3.23
2018-07-23T16:17:23.607Z,3.40
2018-07-23T16:22:27.392Z,3.63
2018-07-23T16:27:30.896Z,3.03
2018-07-23T16:32:34.677Z,3.37
2018-07-23T16:37:38.345Z,2.57
2018-07-23T16:42:42.336Z,3.67
2018-07-23T16:47:45.867Z,3.13
2018-07-23T16:52:49.930Z,3.33
2018-07-23T16:57:54.520Z,3.43
2018-07-23T17:02:58.625Z,3.93
2018-07-23T17:08:02.170Z,3.73
2018-07-23T17:13:05.684Z,3.33
2018-07-23T17:18:09.579Z,3.20
2018-07-23T17:23:12.903Z,3.40
2018-07-23T17:28:17.042Z,3.37
2018-07-23T17:33:20.629Z,3.23
2018-07-23T17:38:24.694Z,3.50
2018-07-23T17:43:28.201Z,3.33
2018-07-23T17:48:32.617Z,3.73
2018-07-23T17:53:36.200Z,4.37
2018-07-23T17:58:39.771Z,2.80
2018-07-23T18:03:43.247Z,2.87
2018-07-23T18:08:46.827Z,2.93
2018-07-23T18:13:50.278Z,4.20
2018-07-23T18:18:54.641Z,2.70
2018-07-23T18:23:58.095Z,3.23
2018-07-23T18:29:01.641Z,3.03
2018-07-23T18:34:05.120Z,3.47
2018-07-23T18:39:11.937Z,3.77
2018-07-23T18:44:15.427Z,2.97
2018-07-23T18:49:32.617Z,6.30
2018-07-23T18:54:36.730Z,4.30
2018-07-23T18:59:40.295Z,3.87
2018-07-23T19:04:43.728Z,3.27
2018-07-23T19:09:47.293Z,3.93
2018-07-23T19:14:50.761Z,3.03
2018-07-23T19:19:54.693Z,3.73
2018-07-23T19:24:58.724Z,3.60
2018-07-23T19:30:02.463Z,3.80
2018-07-23T19:35:06.404Z,3.73
2018-07-23T19:40:10.709Z,4.80
2018-07-23T19:45:15.096Z,3.97
2018-07-23T19:50:20.885Z,4.00
2018-07-23T19:55:24.470Z,2.93
2018-07-23T20:00:34.958Z,3.67
2018-07-23T20:05:39.597Z,2.77
2018-07-23T20:10:43.201Z,4.33
2018-07-23T20:15:47.081Z,3.37
2018-07-23T20:20:50.785Z,3.70
2018-07-23T20:25:54.362Z,4.13
2018-07-23T20:30:57.947Z,4.17
2018-07-23T20:36:02.112Z,4.60
2018-07-23T20:41:05.686Z,4.57
2018-07-23T20:46:09.340Z,4.27
2018-07-23T20:51:13.296Z,4.63
2018-07-23T20:56:16.826Z,4.13
2018-07-23T21:01:20.421Z,3.60
2018-07-23T21:06:24.134Z,3.70
2018-07-23T21:11:27.761Z,4.03
2018-07-23T21:16:32.717Z,5.10
2018-07-23T21:21:36.315Z,4.20
2018-07-23T21:26:39.916Z,4.40
2018-07-23T21:31:43.481Z,4.50
2018-07-23T21:36:47.125Z,4.40
2018-07-23T21:41:50.674Z,3.93
2018-07-23T21:46:54.249Z,3.90
2018-07-23T21:51:57.836Z,4.13
2018-07-23T21:57:01.363Z,3.97
2018-07-23T22:02:04.997Z,3.93
2018-07-23T22:07:08.601Z,4.13
2018-07-23T22:12:12.261Z,4.40
2018-07-23T22:17:15.768Z,4.97
2018-07-23T22:22:19.416Z,4.53
2018-07-23T22:27:22.964Z,4.73
2018-07-23T22:32:26.544Z,5.07
2018-07-23T22:37:30.145Z,4.57
2018-07-23T22:42:33.727Z,4.20
2018-07-23T22:47:37.256Z,4.97
2018-07-23T22:52:41.421Z,4.77
2018-07-23T22:57:44.981Z,4.93
2018-07-23T23:02:48.629Z,5.10
2018-07-23T23:07:52.216Z,4.60
2018-07-23T23:12:55.740Z,5.07
2018-07-23T23:18:01.471Z,5.90
2018-07-23T23:23:05.820Z,5.37
2018-07-23T23:28:09.296Z,5.43
2018-07-23T23:33:12.925Z,5.80
2018-07-23T23:38:16.572Z,5.30
2018-07-23T23:43:20.454Z,5.40
2018-07-23T23:48:24.356Z,6.13
2018-07-23T23:53:27.917Z,6.17
2018-07-23T23:58:31.403Z,5.20
